createdAt,value
2022-10-22T00:02:20.522Z,91.34
2022-10-22T00:04:49.292Z,92.62
2022-10-22T00:07:18.317Z,92.97
2022-10-22T00:09:45.224Z,91.84
2022-10-22T00:12:12.456Z,92.56
2022-10-22T00:14:39.357Z,91.33
2022-10-22T00:17:08.086Z,92.25
2022-10-22T00:19:38.526Z,92.11
2022-10-22T00:22:08.391Z,91.53
2022-10-22T00:24:35.831Z,92.25
2022-10-22T00:27:02.555Z,91.73
2022-10-22T00:29:29.467Z,92.19
2022-10-22T00:34:27.366Z,92.24
2022-10-22T00:36:55.018Z,92.16
2022-10-22T00:39:23.714Z,92.36
2022-10-22T00:41:52.214Z,92.06
2022-10-22T00:45:06.422Z,92.20
2022-10-22T00:48:05.214Z,92.53
2022-10-22T00:50:34.690Z,92.24
2022-10-22T00:53:03.599Z,92.30
2022-10-22T00:55:31.365Z,92.74
2022-10-22T00:57:58.751Z,92.33
2022-10-22T01:00:26.124Z,91.75
2022-10-22T01:02:54.553Z,91.40
2022-10-22T01:05:21.416Z,92.15
2022-10-22T01:07:51.333Z,91.96
2022-10-22T01:10:39.674Z,92.33
2022-10-22T01:13:11.947Z,92.49
2022-10-22T01:15:59.226Z,91.95
2022-10-22T01:18:38.231Z,91.94
2022-10-22T01:21:29.215Z,92.09
2022-10-22T01:24:07.695Z,92.99
2022-10-22T01:26:52.865Z,93.38
2022-10-22T01:29:27.566Z,93.27
2022-10-22T01:32:01.635Z,92.81
2022-10-22T01:34:30.241Z,93.57
2022-10-22T01:36:57.883Z,93.03
2022-10-22T01:39:26.624Z,92.59
2022-10-22T01:41:55.715Z,92.75
2022-10-22T01:44:30.837Z,92.05
2022-10-22T01:47:10.248Z,92.95
2022-10-22T01:50:00.812Z,93.32
2022-10-22T01:52:39.340Z,92.86
2022-10-22T01:55:24.162Z,92.92
2022-10-22T01:58:14.196Z,92.85
2022-10-22T02:00:49.878Z,93.03
2022-10-22T02:03:25.051Z,92.79
2022-10-22T02:05:59.471Z,93.97
2022-10-22T02:08:30.629Z,93.31
2022-10-22T02:10:58.568Z,93.47
2022-10-22T02:13:29.612Z,94.47
2022-10-22T02:15:56.906Z,94.48
2022-10-22T02:18:26.375Z,94.76
2022-10-22T02:20:53.664Z,94.43
2022-10-22T02:23:22.049Z,93.79
2022-10-22T02:25:54.162Z,93.45
2022-10-22T02:28:34.718Z,93.59
2022-10-22T02:31:16.471Z,93.64
2022-10-22T02:33:47.613Z,93.24
2022-10-22T02:36:16.339Z,93.54
2022-10-22T02:38:43.254Z,92.95
2022-10-22T02:41:10.831Z,93.25
2022-10-22T02:43:42.785Z,94.85
2022-10-22T02:46:10.256Z,93.71
2022-10-22T02:48:37.243Z,94.52
2022-10-22T02:51:04.014Z,93.97
2022-10-22T02:53:30.385Z,95.23
2022-10-22T02:55:56.757Z,94.88
2022-10-22T02:58:23.075Z,94.56
2022-10-22T03:00:49.486Z,95.54
2022-10-22T03:03:15.837Z,96.17
2022-10-22T03:05:42.179Z,96.00
2022-10-22T03:08:08.577Z,96.06
2022-10-22T03:10:35.112Z,94.70
2022-10-22T03:13:01.494Z,94.77
2022-10-22T03:17:59.111Z,95.51
2022-10-22T03:20:25.495Z,95.00
2022-10-22T03:22:52.492Z,95.02
2022-10-22T03:25:22.493Z,95.10
2022-10-22T03:27:51.027Z,95.66
2022-10-22T03:30:17.676Z,96.23
2022-10-22T03:32:44.101Z,96.11
2022-10-22T03:35:10.547Z,95.45
2022-10-22T03:37:38.108Z,95.95
2022-10-22T03:40:06.427Z,95.35
2022-10-22T03:42:33.108Z,96.25
2022-10-22T03:44:59.445Z,96.42
2022-10-22T03:47:25.885Z,95.88
2022-10-22T03:49:52.515Z,95.68
2022-10-22T03:52:19.265Z,95.96
2022-10-22T03:54:47.954Z,94.50
2022-10-22T03:57:14.699Z,95.11
2022-10-22T03:59:43.474Z,94.78
2022-10-22T04:02:11.339Z,95.54
2022-10-22T04:04:38.560Z,94.96
2022-10-22T04:07:06.602Z,95.68
2022-10-22T04:09:36.613Z,95.74
2022-10-22T04:12:05.460Z,95.50
2022-10-22T04:14:32.054Z,96.47
2022-10-22T04:16:58.408Z,95.35
2022-10-22T04:19:24.883Z,95.36
2022-10-22T04:21:51.246Z,95.94
2022-10-22T04:24:17.695Z,96.13
2022-10-22T04:26:44.050Z,95.18
2022-10-22T04:29:13.584Z,95.69
2022-10-22T04:31:42.471Z,95.71
2022-10-22T04:34:08.821Z,95.17
2022-10-22T04:36:35.259Z,95.62
2022-10-22T04:39:02.933Z,95.86
2022-10-22T04:41:35.555Z,95.93
2022-10-22T04:44:02.149Z,95.48
2022-10-22T04:46:31.431Z,95.67
2022-10-22T04:48:58.514Z,96.10
2022-10-22T04:51:26.915Z,96.06
2022-10-22T04:53:54.227Z,94.72
2022-10-22T04:56:27.015Z,95.20
2022-10-22T04:58:56.196Z,96.04
2022-10-22T05:01:32.526Z,95.82
2022-10-22T05:04:01.118Z,95.06
2022-10-22T05:06:29.161Z,95.07
2022-10-22T05:08:58.238Z,96.32
2022-10-22T05:11:28.272Z,95.80
2022-10-22T05:13:58.970Z,96.04
2022-10-22T05:16:26.484Z,95.47
2022-10-22T05:18:53.336Z,95.85
2022-10-22T05:21:20.722Z,96.52
2022-10-22T05:23:49.177Z,96.08
2022-10-22T05:26:18.029Z,95.93
2022-10-22T05:28:44.742Z,97.13
2022-10-22T05:31:12.880Z,96.90
2022-10-22T05:33:40.216Z,96.47
2022-10-22T05:36:08.504Z,96.47
2022-10-22T05:38:35.578Z,97.01
2022-10-22T05:41:08.506Z,96.84
2022-10-22T05:43:35.938Z,96.44
2022-10-22T05:46:14.970Z,96.64
2022-10-22T05:48:43.034Z,96.19
2022-10-22T05:51:11.963Z,95.66
2022-10-22T05:53:41.360Z,95.83
2022-10-22T05:56:15.939Z,95.13
2022-10-22T05:58:45.614Z,94.97
2022-10-22T06:01:15.869Z,94.82
2022-10-22T06:03:43.362Z,95.06
2022-10-22T06:06:21.075Z,94.62
2022-10-22T06:08:50.082Z,94.78
2022-10-22T06:11:18.013Z,95.00
2022-10-22T06:13:45.596Z,94.83
2022-10-22T06:16:12.587Z,94.69
2022-10-22T06:18:39.324Z,94.70
2022-10-22T06:21:11.513Z,94.29
2022-10-22T06:23:38.910Z,94.36
2022-10-22T06:26:06.593Z,94.16
2022-10-22T06:28:33.573Z,94.14
2022-10-22T06:31:02.258Z,94.17
2022-10-22T06:33:29.431Z,93.98
2022-10-22T06:35:55.884Z,93.99
2022-10-22T06:38:22.310Z,94.03
2022-10-22T06:40:48.628Z,93.94
2022-10-22T06:43:14.984Z,93.52
2022-10-22T06:45:41.407Z,94.22
2022-10-22T06:48:07.847Z,93.79
2022-10-22T06:50:35.065Z,93.80
2022-10-22T06:53:01.401Z,93.57
2022-10-22T06:55:27.783Z,93.02
2022-10-22T06:57:55.493Z,92.58
2022-10-22T07:00:22.286Z,93.09
2022-10-22T07:02:57.615Z,93.00
2022-10-22T07:05:25.697Z,93.01
2022-10-22T07:07:52.054Z,93.17
2022-10-22T07:10:18.704Z,93.85
2022-10-22T07:12:45.051Z,93.85
2022-10-22T07:15:11.714Z,93.82
2022-10-22T07:20:10.087Z,93.50
2022-10-22T07:22:36.483Z,94.30
2022-10-22T07:25:07.170Z,94.20
2022-10-22T07:27:33.900Z,93.52
2022-10-22T07:30:01.402Z,93.67
2022-10-22T07:32:27.868Z,93.31
2022-10-22T07:34:54.270Z,93.41
2022-10-22T07:37:21.987Z,93.21
2022-10-22T07:39:49.132Z,93.40
2022-10-22T07:42:16.158Z,92.82
2022-10-22T07:44:42.513Z,92.01
2022-10-22T07:47:08.934Z,92.31
2022-10-22T07:49:35.371Z,91.85
2022-10-22T07:52:01.984Z,91.70
2022-10-22T07:54:28.422Z,91.51
2022-10-22T07:56:54.748Z,91.03
2022-10-22T07:59:21.112Z,91.33
2022-10-22T08:01:47.513Z,90.50
2022-10-22T08:04:13.970Z,91.59
2022-10-22T08:06:43.484Z,90.49
2022-10-22T08:09:12.456Z,90.41
2022-10-22T08:11:39.077Z,90.55
2022-10-22T08:14:05.449Z,89.71
2022-10-22T08:16:31.809Z,90.17
2022-10-22T08:18:58.327Z,90.25
2022-10-22T08:21:24.747Z,90.85
2022-10-22T08:23:51.106Z,89.64
2022-10-22T08:26:18.162Z,89.14
2022-10-22T08:28:44.509Z,89.56
2022-10-22T08:31:11.002Z,89.89
2022-10-22T08:33:38.734Z,89.15
2022-10-22T08:36:05.785Z,89.94
2022-10-22T08:38:32.322Z,89.79
2022-10-22T08:41:08.826Z,90.04
2022-10-22T08:43:47.387Z,89.51
2022-10-22T08:46:19.253Z,88.51
2022-10-22T08:48:53.847Z,89.24
2022-10-22T08:51:26.172Z,87.96
2022-10-22T08:54:17.237Z,88.21
2022-10-22T08:56:47.782Z,88.63
2022-10-22T08:59:21.980Z,87.99
2022-10-22T09:01:53.064Z,87.24
2022-10-22T09:04:26.795Z,87.32
2022-10-22T09:06:57.436Z,87.62
2022-10-22T09:09:30.551Z,86.85
2022-10-22T09:11:59.128Z,86.65
2022-10-22T09:14:26.336Z,85.47
2022-10-22T09:17:25.637Z,86.25
2022-10-22T09:20:08.341Z,86.16
2022-10-22T09:23:01.759Z,86.85
2022-10-22T09:25:30.762Z,86.47
2022-10-22T09:27:59.768Z,85.46
2022-10-22T09:30:29.707Z,84.68
2022-10-22T09:33:14.196Z,84.79
2022-10-22T09:35:57.263Z,83.99
2022-10-22T09:38:27.766Z,84.93
2022-10-22T09:40:56.812Z,84.33
2022-10-22T09:43:23.886Z,83.80
2022-10-22T09:45:57.972Z,84.16
2022-10-22T09:48:34.968Z,83.19
2022-10-22T09:51:22.999Z,81.69
2022-10-22T09:53:57.190Z,81.46
2022-10-22T09:56:28.931Z,79.93
2022-10-22T09:58:57.458Z,78.91
2022-10-22T10:01:30.054Z,78.99
2022-10-22T10:04:17.872Z,70.48
2022-10-22T10:06:45.393Z,67.04
2022-10-22T10:09:25.600Z,62.41
2022-10-22T10:12:17.448Z,59.86
2022-10-22T10:15:00.952Z,59.13
2022-10-22T10:17:43.390Z,57.89
2022-10-22T10:20:41.337Z,56.27
2022-10-22T10:23:36.235Z,55.19
2022-10-22T10:26:30.831Z,56.31
2022-10-22T10:29:22.111Z,50.81
2022-10-22T10:32:00.570Z,47.00
2022-10-22T10:34:48.719Z,44.50
2022-10-22T10:37:40.491Z,46.78
2022-10-22T10:40:26.298Z,43.17
2022-10-22T10:42:58.063Z,39.00
2022-10-22T10:45:42.511Z,38.88
2022-10-22T10:48:23.713Z,42.22
2022-10-22T10:50:59.812Z,38.76
2022-10-22T10:54:07.707Z,36.28
2022-10-22T10:56:55.642Z,34.95
2022-10-22T10:59:44.018Z,37.88
2022-10-22T11:02:45.785Z,42.23
2022-10-22T11:05:21.112Z,42.21
2022-10-22T11:07:57.666Z,49.01
2022-10-22T11:10:37.017Z,48.11
2022-10-22T11:13:12.926Z,48.67
2022-10-22T11:15:41.203Z,49.16
2022-10-22T11:18:54.990Z,39.49
2022-10-22T11:21:29.472Z,43.40
2022-10-22T11:24:25.710Z,42.29
2022-10-22T11:27:02.980Z,41.19
2022-10-22T11:29:39.034Z,40.93
2022-10-22T11:32:10.710Z,39.59
2022-10-22T11:34:54.173Z,41.57
2022-10-22T11:37:24.727Z,47.33
2022-10-22T11:39:59.696Z,50.67
2022-10-22T11:42:35.318Z,52.07
2022-10-22T11:45:15.356Z,54.49
2022-10-22T11:47:56.948Z,52.08
2022-10-22T11:50:43.438Z,52.24
2022-10-22T11:53:12.859Z,54.46
2022-10-22T11:55:45.828Z,46.93
2022-10-22T11:58:29.050Z,40.23
2022-10-22T12:01:24.449Z,35.05
2022-10-22T12:04:17.231Z,35.66
2022-10-22T12:06:56.818Z,40.50
2022-10-22T12:09:26.553Z,34.27
2022-10-22T12:11:55.346Z,34.34
2022-10-22T12:14:29.492Z,32.48
2022-10-22T12:16:59.032Z,31.49
2022-10-22T12:19:44.729Z,31.21
2022-10-22T12:22:37.408Z,29.36
2022-10-22T12:25:16.587Z,28.90
2022-10-22T12:27:43.210Z,29.57
2022-10-22T12:30:30.567Z,37.55
2022-10-22T12:33:01.988Z,41.21
2022-10-22T12:35:35.588Z,40.44
2022-10-22T12:38:10.423Z,35.01
2022-10-22T12:40:36.861Z,39.51
2022-10-22T12:43:24.305Z,43.40
2022-10-22T12:45:52.063Z,44.70
2022-10-22T12:48:28.169Z,45.94
2022-10-22T12:50:56.739Z,39.73
2022-10-22T12:53:29.285Z,35.62
2022-10-22T12:56:01.050Z,30.05
2022-10-22T12:58:32.403Z,35.78
2022-10-22T13:01:03.402Z,39.15
2022-10-22T13:03:33.111Z,39.72
2022-10-22T13:06:24.309Z,43.48
2022-10-22T13:08:59.953Z,48.72
2022-10-22T13:11:53.499Z,52.38
2022-10-22T13:14:21.473Z,53.93
2022-10-22T13:17:08.261Z,53.82
2022-10-22T13:19:50.754Z,55.30
2022-10-22T13:22:26.203Z,57.92
2022-10-22T13:24:52.997Z,58.95
2022-10-22T13:27:19.973Z,60.77
2022-10-22T13:29:46.523Z,61.07
2022-10-22T13:32:29.543Z,61.24
2022-10-22T13:35:05.197Z,58.73
2022-10-22T13:37:34.093Z,58.77
2022-10-22T13:40:00.437Z,59.35
2022-10-22T13:42:26.821Z,57.59
2022-10-22T13:44:53.209Z,57.51
2022-10-22T13:47:29.881Z,59.37
2022-10-22T13:49:59.525Z,57.52
2022-10-22T13:52:31.359Z,58.55
2022-10-22T13:54:57.786Z,57.29
2022-10-22T13:57:24.237Z,55.46
2022-10-22T13:59:50.659Z,47.67
2022-10-22T14:02:18.524Z,41.89
2022-10-22T14:04:45.247Z,37.39
2022-10-22T14:07:14.995Z,33.79
2022-10-22T14:09:41.712Z,33.60
2022-10-22T14:12:16.607Z,34.93
2022-10-22T14:14:43.221Z,34.69
2022-10-22T14:17:16.520Z,34.88
2022-10-22T14:19:48.341Z,35.44
2022-10-22T14:22:19.012Z,35.89
2022-10-22T14:24:46.536Z,37.13
2022-10-22T14:27:15.172Z,36.55
2022-10-22T14:29:41.712Z,38.06
2022-10-22T14:32:19.099Z,40.56
2022-10-22T14:34:46.817Z,42.32
2022-10-22T14:37:18.984Z,44.23
2022-10-22T14:39:47.038Z,44.97
2022-10-22T14:42:14.459Z,46.31
2022-10-22T14:44:42.779Z,47.24
2022-10-22T14:47:09.236Z,49.14
2022-10-22T14:49:35.631Z,50.93
2022-10-22T14:52:04.791Z,51.65
2022-10-22T14:54:31.249Z,51.79
2022-10-22T14:56:57.627Z,52.37
2022-10-22T14:59:24.659Z,54.07
2022-10-22T15:01:51.009Z,55.41
2022-10-22T15:04:20.705Z,54.55
2022-10-22T15:06:47.154Z,54.98
2022-10-22T15:09:13.577Z,53.97
2022-10-22T15:11:40.109Z,54.89
2022-10-22T15:14:06.497Z,57.38
2022-10-22T15:16:32.826Z,61.16
2022-10-22T15:18:59.741Z,62.95
2022-10-22T15:21:26.098Z,64.39
2022-10-22T15:23:52.430Z,64.74
2022-10-22T15:26:19.182Z,66.36
2022-10-22T15:28:45.562Z,66.44
2022-10-22T15:31:14.177Z,68.42
2022-10-22T15:33:43.503Z,69.07
2022-10-22T15:36:15.855Z,69.15
2022-10-22T15:38:42.249Z,69.64
2022-10-22T15:41:12.360Z,70.78
2022-10-22T15:43:38.989Z,71.59
2022-10-22T15:46:16.964Z,72.50
2022-10-22T15:48:43.743Z,72.86
2022-10-22T15:51:12.938Z,73.27
2022-10-22T15:53:39.893Z,73.87
2022-10-22T15:56:06.505Z,73.93
2022-10-22T15:58:33.123Z,74.94
2022-10-22T16:01:13.503Z,75.36
2022-10-22T16:03:40.840Z,75.39
2022-10-22T16:06:09.186Z,76.12
2022-10-22T16:08:36.291Z,76.53
2022-10-22T16:11:02.775Z,76.74
2022-10-22T16:13:29.224Z,76.58
2022-10-22T16:15:55.694Z,77.30
2022-10-22T16:18:23.616Z,77.38
2022-10-22T16:20:50.099Z,78.77
2022-10-22T16:23:18.760Z,78.99
2022-10-22T16:25:46.188Z,79.63
2022-10-22T16:28:12.971Z,80.27
2022-10-22T16:30:39.372Z,80.33
2022-10-22T16:33:07.444Z,80.62
2022-10-22T16:35:33.956Z,82.07
2022-10-22T16:38:00.361Z,81.31
2022-10-22T16:40:26.810Z,82.19
2022-10-22T16:42:53.146Z,82.84
2022-10-22T16:45:19.579Z,81.60
2022-10-22T16:47:48.962Z,81.65
2022-10-22T16:50:15.402Z,81.94
2022-10-22T16:52:41.767Z,82.03
2022-10-22T16:55:08.698Z,82.10
2022-10-22T16:57:35.835Z,82.98
2022-10-22T17:00:05.073Z,82.39
2022-10-22T17:02:31.417Z,83.01
2022-10-22T17:04:57.803Z,82.48
2022-10-22T17:07:24.135Z,83.20
2022-10-22T17:09:50.474Z,83.20
2022-10-22T17:12:16.915Z,83.97
2022-10-22T17:14:43.276Z,83.70
2022-10-22T17:17:09.619Z,84.55
2022-10-22T17:19:38.647Z,84.89
2022-10-22T17:22:05.536Z,84.36
2022-10-22T17:24:32.146Z,84.12
2022-10-22T17:26:58.600Z,84.66
2022-10-22T17:29:25.242Z,84.83
2022-10-22T17:31:52.498Z,85.38
2022-10-22T17:34:18.881Z,84.83
2022-10-22T17:36:45.257Z,85.97
2022-10-22T17:39:17.476Z,85.89
2022-10-22T17:41:43.867Z,86.24
2022-10-22T17:44:12.184Z,86.30
2022-10-22T17:46:38.970Z,86.67
2022-10-22T17:49:12.372Z,86.18
2022-10-22T17:51:38.766Z,86.38
2022-10-22T17:54:07.432Z,86.09
2022-10-22T17:56:39.964Z,85.90
2022-10-22T17:59:08.533Z,86.22
2022-10-22T18:01:37.591Z,85.96
2022-10-22T18:04:06.415Z,86.42
2022-10-22T18:06:32.897Z,85.94
2022-10-22T18:08:59.512Z,86.95
2022-10-22T18:11:27.464Z,86.28
2022-10-22T18:13:56.683Z,87.21
2022-10-22T18:16:23.879Z,87.13
2022-10-22T18:18:53.097Z,87.56
2022-10-22T18:21:20.708Z,87.54
2022-10-22T18:23:47.561Z,87.12
2022-10-22T18:26:14.880Z,88.03
2022-10-22T18:28:41.361Z,87.67
2022-10-22T18:31:13.664Z,88.02
2022-10-22T18:33:40.714Z,88.42
2022-10-22T18:36:21.612Z,88.85
2022-10-22T18:38:57.599Z,87.57
2022-10-22T18:41:24.524Z,87.54
2022-10-22T18:44:12.429Z,88.31
2022-10-22T18:46:39.608Z,88.36
2022-10-22T18:49:07.075Z,88.56
2022-10-22T18:51:34.624Z,90.19
2022-10-22T18:54:06.035Z,89.60
2022-10-22T18:56:48.031Z,89.96
2022-10-22T18:59:22.016Z,89.67
2022-10-22T19:01:48.965Z,90.06
2022-10-22T19:04:15.568Z,89.55
2022-10-22T19:06:45.398Z,89.89
2022-10-22T19:09:16.114Z,89.92
2022-10-22T19:11:44.392Z,90.35
2022-10-22T19:14:11.189Z,91.07
2022-10-22T19:16:38.693Z,91.85
2022-10-22T19:19:06.638Z,92.14
2022-10-22T19:21:33.878Z,92.07
2022-10-22T19:24:01.179Z,92.06
2022-10-22T19:26:29.732Z,91.85
2022-10-22T19:28:58.003Z,91.00
2022-10-22T19:31:26.185Z,91.56
2022-10-22T19:33:54.571Z,92.00
2022-10-22T19:36:24.209Z,92.72
2022-10-22T19:38:51.137Z,92.30
2022-10-22T19:41:19.797Z,92.70
2022-10-22T19:43:49.912Z,92.72
2022-10-22T19:46:17.040Z,93.25
2022-10-22T19:51:18.882Z,94.38
2022-10-22T19:53:45.435Z,94.45
2022-10-22T19:56:12.346Z,93.94
2022-10-22T19:58:38.973Z,94.02
2022-10-22T20:01:09.925Z,93.50
2022-10-22T20:03:37.677Z,94.65
2022-10-22T20:06:05.951Z,94.48
2022-10-22T20:08:37.686Z,94.08
2022-10-22T20:11:06.889Z,94.45
2022-10-22T20:13:34.795Z,94.07
2022-10-22T20:16:01.358Z,93.99
2022-10-22T20:18:28.750Z,93.66
2022-10-22T20:20:55.289Z,94.35
2022-10-22T20:23:21.734Z,94.74
2022-10-22T20:25:48.415Z,94.60
2022-10-22T20:28:15.345Z,94.68
2022-10-22T20:30:45.564Z,95.54
2022-10-22T20:33:12.412Z,94.14
2022-10-22T20:35:39.464Z,94.07
2022-10-22T20:38:07.922Z,93.87
2022-10-22T20:40:36.217Z,94.65
2022-10-22T20:43:02.565Z,94.50
2022-10-22T20:45:29.108Z,94.77
2022-10-22T20:48:02.620Z,94.48
2022-10-22T20:50:31.914Z,95.47
2022-10-22T20:52:58.899Z,95.16
2022-10-22T20:55:25.581Z,94.75
2022-10-22T20:57:52.028Z,94.38
2022-10-22T21:00:18.403Z,95.30
2022-10-22T21:02:44.821Z,95.53
2022-10-22T21:05:11.269Z,94.95
2022-10-22T21:07:37.637Z,95.36
2022-10-22T21:10:04.531Z,95.59
2022-10-22T21:12:30.858Z,95.55
2022-10-22T21:14:57.162Z,95.41
2022-10-22T21:17:23.502Z,95.80
2022-10-22T21:19:49.951Z,96.20
2022-10-22T21:22:16.336Z,96.38
2022-10-22T21:24:42.878Z,95.34
2022-10-22T21:27:09.298Z,95.16
2022-10-22T21:29:35.658Z,95.90
2022-10-22T21:32:01.996Z,95.97
2022-10-22T21:34:28.407Z,96.64
2022-10-22T21:36:54.823Z,96.70
2022-10-22T21:39:21.212Z,95.89
2022-10-22T21:41:47.634Z,95.75
2022-10-22T21:44:14.075Z,95.85
2022-10-22T21:46:40.421Z,96.54
2022-10-22T21:49:06.788Z,96.85
2022-10-22T21:51:35.252Z,96.26
2022-10-22T21:54:01.810Z,96.65
2022-10-22T21:56:32.650Z,96.30
2022-10-22T21:59:00.240Z,96.72
2022-10-22T22:01:27.995Z,96.19
2022-10-22T22:03:54.578Z,97.22
2022-10-22T22:06:23.549Z,96.32
2022-10-22T22:08:52.419Z,97.29
2022-10-22T22:11:22.609Z,96.48
2022-10-22T22:13:49.124Z,96.90
2022-10-22T22:16:28.638Z,96.96
2022-10-22T22:19:00.200Z,97.08
2022-10-22T22:21:26.820Z,96.11
2022-10-22T22:23:53.932Z,96.61
2022-10-22T22:26:26.649Z,96.39
2022-10-22T22:28:56.700Z,96.39
2022-10-22T22:31:34.674Z,97.11
2022-10-22T22:34:08.676Z,96.98
2022-10-22T22:36:38.653Z,96.79
2022-10-22T22:39:06.721Z,96.85
2022-10-22T22:41:33.120Z,96.19
2022-10-22T22:43:59.842Z,95.99
2022-10-22T22:46:26.262Z,96.00
2022-10-22T22:48:52.641Z,96.90
2022-10-22T22:51:19.106Z,96.12
2022-10-22T22:53:45.857Z,97.04
2022-10-22T22:56:27.783Z,96.67
2022-10-22T22:58:54.650Z,96.23
2022-10-22T23:01:24.393Z,97.15
2022-10-22T23:03:55.496Z,96.09
2022-10-22T23:06:21.991Z,97.41
2022-10-22T23:08:50.313Z,97.38
2022-10-22T23:11:16.718Z,97.03
2022-10-22T23:13:43.731Z,96.45
2022-10-22T23:16:16.861Z,96.54
2022-10-22T23:18:44.720Z,97.16
2022-10-22T23:21:19.649Z,97.67
2022-10-22T23:23:48.852Z,97.06
2022-10-22T23:26:19.013Z,96.57
2022-10-22T23:28:45.418Z,96.98
2022-10-22T23:31:17.120Z,96.74
2022-10-22T23:33:43.886Z,97.60
2022-10-22T23:36:11.383Z,97.04
2022-10-22T23:38:39.159Z,97.18
2022-10-22T23:41:06.255Z,98.22
2022-10-22T23:43:36.068Z,97.76
2022-10-22T23:46:04.251Z,97.20
2022-10-22T23:48:30.895Z,97.89
2022-10-22T23:50:57.314Z,97.34
2022-10-22T23:53:23.729Z,97.29
2022-10-22T23:55:50.107Z,97.65
2022-10-22T23:58:17.195Z,97.59
